Time;durP1;ratioP1;P1;durP2;ratioP2;P2;SDS_P1;SDS_P2;PMS_P1;PMS_P2;Temp;Humidity;BMP_temperature;BMP_pressure;BME280_temperature;BME280_humidity;BME280_pressure;Samples;Min_cycle;Max_cycle;Signal;HPM_P1;HPM_P2
2022/07/03 00:00:35;;;;;;;5.07;1.30;;;20.00;99.90;;;;;;4990382;28;20561;-79
2022/07/03 00:03:19;;;;;;;2.85;1.48;;;19.90;99.90;;;;;;4983045;28;20224;-78
2022/07/03 00:06:03;;;;;;;1.42;1.27;;;19.80;99.90;;;;;;4987404;28;20277;-78
2022/07/03 00:08:47;;;;;;;1.33;1.02;;;19.80;99.90;;;;;;4987010;28;20243;-79
2022/07/03 00:11:32;;;;;;;3.13;1.30;;;19.80;99.90;;;;;;4987796;28;20685;-78
2022/07/03 00:14:17;;;;;;;1.83;1.35;;;19.70;99.90;;;;;;4975938;28;20265;-82
2022/07/03 00:17:01;;;;;;;2.75;1.38;;;19.60;99.90;;;;;;4984433;28;20232;-78
2022/07/03 00:19:46;;;;;;;2.25;1.35;;;19.60;99.90;;;;;;4989051;28;20204;-79
2022/07/03 00:22:32;;;;;;;2.45;1.48;;;19.50;99.90;;;;;;4983207;28;20196;-78
2022/07/03 00:25:18;;;;;;;1.45;1.35;;;19.50;99.90;;;;;;4990713;28;20193;-79
2022/07/03 00:28:03;;;;;;;3.13;1.70;;;19.50;99.90;;;;;;4997414;28;20531;-78
2022/07/03 00:30:48;;;;;;;1.33;1.20;;;19.40;99.90;;;;;;4983831;28;20282;-78
2022/07/03 00:33:34;;;;;;;2.10;1.40;;;19.40;99.90;;;;;;4983767;28;20275;-78
2022/07/03 00:36:20;;;;;;;5.18;1.48;;;19.30;99.90;;;;;;4975996;28;20241;-78
2022/07/03 00:39:05;;;;;;;2.45;1.63;;;19.30;99.90;;;;;;4984370;28;20257;-79
2022/07/03 00:42:00;;;;;;;2.95;1.38;;;19.20;99.90;;;;;;4990523;28;20204;-78
2022/07/03 00:44:55;;;;;;;1.92;1.50;;;19.20;99.90;;;;;;4982059;28;20304;-78
2022/07/03 00:47:42;;;;;;;3.75;1.80;;;19.10;99.90;;;;;;4987772;28;20630;-79
2022/07/03 00:50:34;;;;;;;4.95;1.55;;;19.00;99.90;;;;;;4982086;28;20682;-78
2022/07/03 00:53:27;;;;;;;1.63;1.48;;;19.00;99.90;;;;;;4986353;28;20225;-78
2022/07/03 00:56:13;;;;;;;2.83;1.52;;;18.90;99.90;;;;;;4986987;28;20543;-79
2022/07/03 00:58:59;;;;;;;1.70;1.60;;;18.70;99.90;;;;;;4991345;28;20200;-79
2022/07/03 01:01:45;;;;;;;4.75;1.83;;;18.60;99.90;;;;;;4986283;28;20231;-78
2022/07/03 01:04:49;;;;;;;2.90;1.90;;;18.50;99.90;;;;;;4982935;28;20221;-77
2022/07/03 01:07:56;;;;;;;6.03;2.03;;;18.40;99.90;;;;;;4979862;28;20598;-78
2022/07/03 01:11:03;;;;;;;3.47;2.00;;;18.40;99.90;;;;;;4979742;28;20212;-78
2022/07/03 01:14:18;;;;;;;2.73;2.10;;;18.30;99.90;;;;;;4979631;28;20216;-78
2022/07/03 01:17:19;;;;;;;5.07;2.27;;;18.20;99.90;;;;;;4986206;28;20196;-77
2022/07/03 01:20:06;;;;;;;2.40;2.17;;;18.10;99.90;;;;;;4991572;28;20196;-78
2022/07/03 01:22:57;;;;;;;2.77;2.23;;;18.10;99.90;;;;;;4987294;28;20282;-78
2022/07/03 01:25:50;;;;;;;3.23;2.30;;;18.00;99.90;;;;;;4980979;28;20275;-78
2022/07/03 01:28:37;;;;;;;3.03;2.43;;;18.00;99.90;;;;;;4981563;28;20207;-78
2022/07/03 01:31:22;;;;;;;3.50;2.30;;;17.90;99.90;;;;;;4986395;28;20191;-79
2022/07/03 01:34:13;;;;;;;2.63;2.47;;;17.90;99.90;;;;;;4987695;28;20228;-78
2022/07/03 01:37:00;;;;;;;2.70;2.47;;;17.80;99.90;;;;;;4983030;28;20236;-79
2022/07/03 01:39:46;;;;;;;3.63;2.40;;;17.80;99.90;;;;;;4984151;28;20200;-79
2022/07/03 01:42:33;;;;;;;5.63;2.40;;;17.80;99.90;;;;;;4983008;28;20192;-79
2022/07/03 01:45:20;;;;;;;3.27;2.50;;;17.70;99.90;;;;;;4988194;28;20185;-78
2022/07/03 01:48:06;;;;;;;3.53;2.90;;;17.70;99.90;;;;;;4983412;28;20219;-78
2022/07/03 01:50:51;;;;;;;3.77;2.40;;;17.60;99.90;;;;;;4981523;28;20193;-78
2022/07/03 01:53:38;;;;;;;8.77;2.77;;;17.50;99.90;;;;;;4980312;28;20225;-78
2022/07/03 01:56:23;;;;;;;3.60;2.50;;;17.40;99.90;;;;;;4983276;28;20192;-79
2022/07/03 01:59:07;;;;;;;5.50;3.30;;;17.40;99.90;;;;;;4979053;28;20288;-79
2022/07/03 02:02:21;;;;;;;4.67;2.90;;;17.40;99.90;;;;;;4974622;28;20197;-78
2022/07/03 02:05:21;;;;;;;5.97;2.80;;;17.30;99.90;;;;;;4989560;28;20787;-78
2022/07/03 02:08:23;;;;;;;4.40;2.60;;;17.30;99.90;;;;;;4983372;28;20288;-78
2022/07/03 02:11:15;;;;;;;2.90;2.60;;;17.30;99.90;;;;;;4979850;28;20197;-78
2022/07/03 02:14:25;;;;;;;3.17;2.90;;;17.40;99.90;;;;;;4997734;28;20224;-78
2022/07/03 02:17:16;;;;;;;5.60;3.23;;;17.40;99.90;;;;;;4985237;28;20225;-78
2022/07/03 02:20:04;;;;;;;7.97;3.20;;;17.40;99.90;;;;;;4985603;28;20281;-79
2022/07/03 02:22:57;;;;;;;5.27;2.90;;;17.40;99.90;;;;;;4987966;28;20243;-79
2022/07/03 02:25:46;;;;;;;5.97;3.17;;;17.40;99.90;;;;;;4985242;28;20217;-78
2022/07/03 02:29:04;;;;;;;4.87;3.20;;;17.40;99.90;;;;;;4986640;28;20236;-79
2022/07/03 02:31:57;;;;;;;4.17;3.63;;;17.30;99.90;;;;;;4986110;28;20184;-78
2022/07/03 02:34:47;;;;;;;3.73;3.43;;;17.30;99.90;;;;;;4989116;28;20582;-78
2022/07/03 02:37:54;;;;;;;3.37;3.17;;;17.20;99.90;;;;;;4988498;28;20190;-79
2022/07/03 02:41:00;;;;;;;6.73;3.03;;;17.20;99.90;;;;;;4982485;28;20260;-78
2022/07/03 02:44:10;;;;;;;4.80;3.40;;;17.10;99.90;;;;;;4989955;28;20383;-78
2022/07/03 02:47:11;;;;;;;4.97;3.47;;;17.10;99.90;;;;;;4988546;28;20268;-78
2022/07/03 02:50:10;;;;;;;6.17;3.43;;;17.00;99.90;;;;;;4987897;28;20192;-78
2022/07/03 02:53:09;;;;;;;4.70;3.63;;;17.00;99.90;;;;;;4985042;28;20197;-79
2022/07/03 02:56:07;;;;;;;5.90;3.43;;;17.00;99.90;;;;;;4996367;28;20599;-79
2022/07/03 02:59:03;;;;;;;4.17;3.33;;;16.90;99.90;;;;;;4981599;28;20192;-78
2022/07/03 03:01:58;;;;;;;5.63;3.70;;;16.80;99.90;;;;;;4985511;28;20193;-78
2022/07/03 03:04:51;;;;;;;7.33;3.83;;;16.80;99.90;;;;;;4983208;28;20264;-78
2022/07/03 03:07:55;;;;;;;5.47;3.70;;;16.80;99.90;;;;;;4992379;28;20275;-78
2022/07/03 03:10:41;;;;;;;4.63;3.53;;;16.70;99.90;;;;;;4979792;28;20229;-78
2022/07/03 03:13:30;;;;;;;4.70;3.83;;;16.70;99.90;;;;;;4987022;28;20220;-78
2022/07/03 03:16:15;;;;;;;6.60;3.90;;;16.70;99.90;;;;;;4982254;28;20197;-79
2022/07/03 03:18:59;;;;;;;5.57;4.27;;;16.70;99.90;;;;;;4983057;28;20307;-78
2022/07/03 03:22:07;;;;;;;5.90;4.10;;;16.70;99.90;;;;;;4986778;28;20265;-78
2022/07/03 03:24:52;;;;;;;6.17;4.10;;;16.60;99.90;;;;;;4986236;28;20264;-79
2022/07/03 03:27:36;;;;;;;5.50;4.27;;;16.60;99.90;;;;;;4987451;28;20244;-77
2022/07/03 03:30:21;;;;;;;6.80;4.23;;;16.60;99.90;;;;;;4980161;28;20264;-78
2022/07/03 03:33:09;;;;;;;7.93;4.50;;;16.50;99.90;;;;;;4987107;28;20233;-78
2022/07/03 03:35:53;;;;;;;11.13;4.10;;;16.50;99.90;;;;;;4984692;28;20308;-78
2022/07/03 03:38:38;;;;;;;5.07;4.30;;;16.50;99.90;;;;;;4987563;28;20197;-78
2022/07/03 03:41:23;;;;;;;8.17;4.53;;;16.40;99.90;;;;;;4985730;28;20209;-78
2022/07/03 03:44:07;;;;;;;5.03;4.53;;;16.40;99.90;;;;;;4974783;28;20221;-79
2022/07/03 03:46:51;;;;;;;5.37;4.80;;;16.40;99.90;;;;;;4989629;28;20205;-78
2022/07/03 03:49:35;;;;;;;6.37;5.17;;;16.30;99.90;;;;;;4985140;28;20228;-78
2022/07/03 03:52:20;;;;;;;5.73;4.93;;;16.30;99.90;;;;;;4991638;28;20197;-78
2022/07/03 03:55:05;;;;;;;5.93;5.30;;;16.30;99.90;;;;;;4988661;28;20314;-78
2022/07/03 03:57:49;;;;;;;11.00;5.60;;;16.30;99.90;;;;;;4985324;28;20199;-78
2022/07/03 04:00:33;;;;;;;5.83;5.13;;;16.30;99.90;;;;;;4984554;28;20276;-78
2022/07/03 04:03:17;;;;;;;5.90;5.40;;;16.40;99.90;;;;;;4985049;28;20209;-78
2022/07/03 04:06:01;;;;;;;6.10;5.50;;;16.40;99.90;;;;;;4978952;28;20186;-78
2022/07/03 04:08:46;;;;;;;9.83;6.17;;;16.40;99.90;;;;;;4989090;28;20284;-78
2022/07/03 04:11:30;;;;;;;6.97;6.23;;;16.40;99.90;;;;;;4986604;28;20209;-78
2022/07/03 04:14:14;;;;;;;6.27;5.63;;;16.40;99.90;;;;;;4989359;28;20216;-79
2022/07/03 04:16:58;;;;;;;6.90;6.30;;;16.50;99.90;;;;;;4990338;28;20188;-79
2022/07/03 04:19:43;;;;;;;9.03;6.60;;;16.50;99.90;;;;;;4987623;28;20200;-78
2022/07/03 04:22:27;;;;;;;8.73;6.60;;;16.50;99.90;;;;;;4987636;28;20205;-81
2022/07/03 04:25:11;;;;;;;7.80;6.97;;;16.50;99.90;;;;;;5000072;28;20236;-77
2022/07/03 04:27:55;;;;;;;8.27;6.27;;;16.50;99.90;;;;;;4986192;28;20587;-78
2022/07/03 04:30:40;;;;;;;9.03;6.93;;;16.50;99.90;;;;;;4986590;28;20284;-78
2022/07/03 04:33:24;;;;;;;8.10;7.40;;;16.50;99.90;;;;;;4985309;28;20260;-78
2022/07/03 04:36:08;;;;;;;10.83;7.37;;;16.50;99.90;;;;;;4985310;28;20184;-78
2022/07/03 04:38:52;;;;;;;12.50;7.77;;;16.50;99.90;;;;;;4982886;28;20184;-78
2022/07/03 04:41:36;;;;;;;9.17;7.70;;;16.60;99.90;;;;;;4983515;28;20193;-77
2022/07/03 04:44:20;;;;;;;11.80;8.20;;;16.60;99.90;;;;;;4985713;28;20253;-79
2022/07/03 04:47:04;;;;;;;9.60;8.50;;;16.60;99.90;;;;;;4984756;28;20256;-78
2022/07/03 04:49:49;;;;;;;11.60;7.83;;;16.70;99.90;;;;;;4989367;28;20677;-78
2022/07/03 04:52:33;;;;;;;9.20;8.40;;;16.70;99.90;;;;;;4975700;28;20279;-79
2022/07/03 04:55:17;;;;;;;15.13;8.50;;;16.70;99.90;;;;;;4982937;28;20264;-79
2022/07/03 04:58:01;;;;;;;9.93;8.77;;;16.80;99.90;;;;;;4983790;28;20243;-78
2022/07/03 05:00:46;;;;;;;9.47;8.77;;;16.80;99.90;;;;;;4985769;28;20256;-78
2022/07/03 05:03:30;;;;;;;13.23;9.03;;;16.90;99.90;;;;;;4982889;28;20221;-79
2022/07/03 05:06:15;;;;;;;13.50;9.17;;;16.90;99.90;;;;;;4985289;28;20197;-77
2022/07/03 05:08:59;;;;;;;10.23;9.27;;;16.90;99.90;;;;;;4979406;28;20237;-78
2022/07/03 05:11:43;;;;;;;15.13;9.57;;;17.00;99.90;;;;;;4983464;28;20197;-78
2022/07/03 05:14:27;;;;;;;10.13;9.17;;;17.00;99.90;;;;;;4979910;28;20672;-79
2022/07/03 05:17:11;;;;;;;13.00;9.53;;;17.10;99.90;;;;;;4987671;28;20186;-79
2022/07/03 05:23:01;;;;;;;11.00;9.70;;;17.20;99.90;;;;;;4989763;28;20197;-77
2022/07/03 05:25:45;;;;;;;13.23;10.03;;;17.30;99.90;;;;;;4982855;28;20196;-79
2022/07/03 05:28:30;;;;;;;12.07;10.80;;;17.40;99.90;;;;;;4989410;28;20201;-78
2022/07/03 05:31:15;;;;;;;12.10;10.90;;;17.40;99.90;;;;;;4979927;28;20261;-79
2022/07/03 05:34:00;;;;;;;12.33;10.93;;;17.50;99.90;;;;;;4985974;28;20212;-78
2022/07/03 05:36:44;;;;;;;15.17;10.93;;;17.60;99.90;;;;;;4986136;28;20200;-78
2022/07/03 05:39:33;;;;;;;12.40;11.13;;;17.70;99.90;;;;;;4986690;28;20192;-78
2022/07/03 05:42:18;;;;;;;11.87;10.77;;;17.70;99.90;;;;;;4987141;28;20196;-78
2022/07/03 05:45:02;;;;;;;12.53;11.33;;;17.80;99.90;;;;;;4978164;28;20220;-79
2022/07/03 05:47:47;;;;;;;11.50;10.40;;;17.90;99.90;;;;;;4982148;28;20696;-79
2022/07/03 05:50:31;;;;;;;13.17;10.17;;;18.00;99.90;;;;;;4976995;28;20979;-79
2022/07/03 05:53:19;;;;;;;12.10;10.90;;;18.00;99.90;;;;;;4984969;28;20217;-79
2022/07/03 05:56:04;;;;;;;13.03;10.70;;;18.10;99.90;;;;;;4984481;28;20256;-78
2022/07/03 05:58:48;;;;;;;14.03;10.60;;;18.20;99.90;;;;;;4986196;28;20220;-79
2022/07/03 06:01:32;;;;;;;12.33;10.63;;;18.30;99.90;;;;;;4981317;28;20189;-79
2022/07/03 06:04:16;;;;;;;11.13;9.37;;;18.40;99.90;;;;;;4976479;28;20216;-79
2022/07/03 06:07:01;;;;;;;10.13;9.20;;;18.50;99.90;;;;;;4985914;28;20225;-78
2022/07/03 06:09:45;;;;;;;11.33;9.30;;;18.60;99.90;;;;;;4974314;28;20208;-78
2022/07/03 06:12:29;;;;;;;9.57;8.53;;;18.80;99.90;;;;;;4984565;28;20240;-79
2022/07/03 06:15:14;;;;;;;13.50;8.70;;;18.90;99.90;;;;;;4982108;28;20212;-79
2022/07/03 06:17:58;;;;;;;11.77;8.20;;;19.00;99.90;;;;;;4989136;28;20216;-78
2022/07/03 06:20:42;;;;;;;10.07;7.45;;;19.10;99.90;;;;;;4980899;28;20188;-78
2022/07/03 06:23:26;;;;;;;11.38;7.80;;;19.20;99.90;;;;;;4978972;28;20208;-78
